Time;durP1;ratioP1;P1;durP2;ratioP2;P2;SDS_P1;SDS_P2;PMS_P1;PMS_P2;Temp;Humidity;BMP_temperature;BMP_pressure;BME280_temperature;BME280_humidity;BME280_pressure;Samples;Min_cycle;Max_cycle;Signal;HPM_P1;HPM_P2
2022/08/04 00:02:30;;;;;;;3.30;1.52;;;19.30;99.90;;;;;;5020838;28;20134;-79
2022/08/04 00:05:09;;;;;;;3.22;1.60;;;19.30;99.90;;;;;;5037504;28;20052;-79
2022/08/04 00:08:08;;;;;;;6.47;1.73;;;19.30;99.90;;;;;;5020946;28;20371;-79
2022/08/04 00:10:38;;;;;;;6.43;1.30;;;19.20;99.90;;;;;;4930531;28;20055;-78
2022/08/04 00:13:04;;;;;;;2.13;1.30;;;19.20;99.90;;;;;;5034751;28;20479;-78
2022/08/04 00:15:32;;;;;;;2.22;1.20;;;19.20;99.90;;;;;;5003859;28;20493;-79
2022/08/04 00:18:04;;;;;;;3.42;1.35;;;19.10;99.90;;;;;;5037063;28;20041;-82
2022/08/04 00:20:33;;;;;;;3.03;1.35;;;19.10;99.90;;;;;;5036995;28;20053;-82
2022/08/04 00:23:00;;;;;;;1.77;1.10;;;19.10;99.90;;;;;;5020935;28;20128;-82
2022/08/04 00:25:26;;;;;;;1.90;1.13;;;19.00;99.90;;;;;;5037123;28;20080;-82
2022/08/04 00:27:53;;;;;;;3.63;1.23;;;19.00;99.90;;;;;;5020935;28;20403;-82
2022/08/04 00:30:20;;;;;;;3.72;1.10;;;18.90;99.90;;;;;;5036620;28;20081;-82
2022/08/04 00:32:45;;;;;;;5.68;1.95;;;18.90;99.90;;;;;;5002455;28;20479;-82
2022/08/04 00:35:15;;;;;;;3.08;1.30;;;18.90;99.90;;;;;;5037545;28;20387;-82
2022/08/04 00:37:44;;;;;;;2.92;1.40;;;18.90;99.90;;;;;;5020736;28;20059;-82
2022/08/04 00:40:23;;;;;;;5.68;1.63;;;18.90;99.90;;;;;;5037157;28;20486;-82
2022/08/04 00:43:05;;;;;;;3.08;1.52;;;19.00;99.90;;;;;;5034822;28;20044;-82
2022/08/04 00:45:42;;;;;;;6.05;1.85;;;19.10;99.90;;;;;;5036666;28;20083;-82
2022/08/04 00:48:32;;;;;;;7.25;1.75;;;19.20;99.90;;;;;;5053401;28;20391;-82
2022/08/04 00:51:01;;;;;;;6.95;1.95;;;19.30;99.90;;;;;;5053559;28;20044;-82
2022/08/04 00:53:54;;;;;;;4.43;2.08;;;19.40;99.90;;;;;;5037790;28;20044;-82
2022/08/04 00:56:44;;;;;;;5.35;2.00;;;19.50;99.90;;;;;;5036816;28;20127;-82
2022/08/04 00:59:43;;;;;;;5.57;1.90;;;19.50;99.90;;;;;;5020497;28;20045;-82
2022/08/04 01:02:38;;;;;;;5.78;1.80;;;19.60;99.90;;;;;;5019551;28;20053;-82
2022/08/04 01:05:05;;;;;;;9.95;2.53;;;19.60;99.90;;;;;;4982706;28;20058;-81
2022/08/04 01:07:49;;;;;;;6.80;2.10;;;19.60;99.90;;;;;;5036204;28;20111;-79
2022/08/04 01:10:45;;;;;;;7.13;2.08;;;19.50;99.90;;;;;;5052291;28;20120;-79
2022/08/04 01:13:39;;;;;;;2.85;1.63;;;19.60;99.90;;;;;;5031819;28;20140;-79
2022/08/04 01:16:07;;;;;;;4.30;1.63;;;19.60;99.90;;;;;;5035707;28;20049;-79
2022/08/04 01:18:58;;;;;;;3.97;1.48;;;19.60;99.90;;;;;;5010580;28;20115;-79
2022/08/04 01:21:29;;;;;;;4.57;1.85;;;19.60;99.90;;;;;;5051652;28;20080;-79
2022/08/04 01:23:57;;;;;;;3.28;1.60;;;19.60;99.90;;;;;;5015411;28;20463;-82
2022/08/04 01:27:01;;;;;;;3.20;1.42;;;19.60;99.90;;;;;;5052658;28;20045;-82
2022/08/04 01:29:34;;;;;;;4.07;1.60;;;19.50;99.90;;;;;;5037095;28;20055;-82
2022/08/04 01:32:01;;;;;;;5.00;2.25;;;19.50;99.90;;;;;;5035908;28;20175;-82
2022/08/04 01:34:46;;;;;;;6.07;2.17;;;19.50;99.90;;;;;;5052421;28;20044;-82
2022/08/04 01:37:44;;;;;;;3.97;1.85;;;19.50;99.90;;;;;;5052988;28;20047;-82
2022/08/04 01:40:13;;;;;;;3.88;2.25;;;19.50;99.90;;;;;;5052357;28;20044;-79
2022/08/04 01:42:41;;;;;;;4.18;1.65;;;19.60;99.90;;;;;;5033058;28;20033;-79
2022/08/04 01:45:09;;;;;;;5.68;2.47;;;19.60;99.90;;;;;;5033619;28;20475;-79
2022/08/04 01:47:40;;;;;;;5.07;1.92;;;19.70;99.90;;;;;;5052476;28;20037;-79
2022/08/04 01:50:12;;;;;;;3.28;1.77;;;19.70;99.90;;;;;;5035757;28;20037;-79
2022/08/04 01:52:40;;;;;;;4.40;2.03;;;19.70;99.90;;;;;;5052208;28;20375;-79
2022/08/04 01:55:09;;;;;;;5.60;2.15;;;19.70;99.90;;;;;;5026757;28;20033;-79
2022/08/04 01:57:44;;;;;;;7.50;2.17;;;19.70;99.90;;;;;;5052260;28;20152;-82
2022/08/04 02:00:18;;;;;;;5.50;2.30;;;19.70;99.90;;;;;;5049825;28;20079;-82
2022/08/04 02:02:45;;;;;;;4.85;2.22;;;19.60;99.90;;;;;;5032894;28;20042;-82
2022/08/04 02:05:15;;;;;;;8.98;2.22;;;19.60;99.90;;;;;;5017143;28;20052;-82
2022/08/04 02:07:43;;;;;;;6.78;2.13;;;19.60;99.90;;;;;;5035921;28;20041;-82
2022/08/04 02:10:24;;;;;;;4.15;1.98;;;19.60;99.90;;;;;;5052170;28;20479;-83
2022/08/04 02:13:04;;;;;;;3.53;2.10;;;19.70;99.90;;;;;;5052202;28;20036;-82
2022/08/04 02:16:09;;;;;;;5.93;2.20;;;19.70;99.90;;;;;;5051757;28;20087;-82
2022/08/04 02:18:49;;;;;;;3.35;1.75;;;19.70;99.90;;;;;;5031227;28;20052;-82
2022/08/04 02:21:19;;;;;;;7.57;2.20;;;19.80;99.90;;;;;;5035850;28;20045;-82
2022/08/04 02:23:49;;;;;;;5.65;2.10;;;19.80;99.90;;;;;;5019503;28;20045;-82
2022/08/04 02:26:25;;;;;;;5.53;2.00;;;19.80;99.90;;;;;;5038621;28;20498;-82
2022/08/04 02:29:09;;;;;;;4.15;1.70;;;19.80;99.90;;;;;;5052420;28;20041;-82
2022/08/04 02:31:54;;;;;;;6.63;1.83;;;19.80;99.90;;;;;;5025567;28;20048;-82
2022/08/04 02:34:31;;;;;;;5.38;2.25;;;19.80;99.90;;;;;;5018755;28;20037;-82
2022/08/04 02:36:58;;;;;;;3.95;1.95;;;19.80;99.90;;;;;;5018041;28;20102;-82
2022/08/04 02:39:32;;;;;;;4.35;1.88;;;19.80;99.90;;;;;;5018597;28;20041;-82
2022/08/04 02:41:58;;;;;;;7.13;2.28;;;19.80;99.90;;;;;;5022482;28;20398;-82
2022/08/04 02:44:27;;;;;;;4.03;2.10;;;19.80;99.90;;;;;;5039168;28;20063;-82
2022/08/04 02:46:53;;;;;;;4.22;1.70;;;19.80;99.90;;;;;;5038247;28;20136;-82
2022/08/04 02:49:21;;;;;;;5.50;2.08;;;19.90;99.90;;;;;;5023146;28;20033;-82
2022/08/04 02:51:52;;;;;;;3.17;1.80;;;19.90;99.90;;;;;;5038973;28;20123;-82
2022/08/04 02:54:26;;;;;;;4.20;2.00;;;19.90;99.90;;;;;;5022848;28;20056;-82
2022/08/04 02:56:54;;;;;;;3.85;2.05;;;19.90;99.90;;;;;;5022744;28;20049;-82
2022/08/04 02:59:25;;;;;;;3.63;2.10;;;19.90;99.90;;;;;;5021750;28;20048;-82
2022/08/04 03:01:55;;;;;;;5.50;1.60;;;19.90;99.90;;;;;;5021321;28;20501;-82
2022/08/04 03:04:41;;;;;;;3.10;2.00;;;19.90;99.90;;;;;;5039016;28;20049;-79
2022/08/04 03:07:45;;;;;;;5.43;2.42;;;20.00;99.90;;;;;;5038582;28;20382;-79
2022/08/04 03:10:23;;;;;;;5.60;1.77;;;20.00;99.90;;;;;;5038854;28;20368;-79
2022/08/04 03:13:19;;;;;;;5.57;2.13;;;20.00;99.90;;;;;;5022144;28;20037;-79
2022/08/04 03:16:02;;;;;;;3.65;1.92;;;20.00;99.90;;;;;;5043031;23;20502;-79
2022/08/04 03:18:36;;;;;;;3.80;2.00;;;20.00;99.90;;;;;;5022030;28;20049;-80
2022/08/04 03:21:45;;;;;;;2.28;1.48;;;19.90;99.90;;;;;;5039002;28;20463;-82
2022/08/04 03:24:29;;;;;;;2.03;1.10;;;19.90;99.90;;;;;;5038505;28;20051;-82
2022/08/04 03:27:21;;;;;;;3.42;1.55;;;19.80;99.90;;;;;;5038059;28;20041;-82
2022/08/04 03:29:47;;;;;;;4.28;1.80;;;19.70;99.90;;;;;;5055188;28;20045;-82
2022/08/04 03:32:12;;;;;;;2.58;1.70;;;19.70;99.90;;;;;;5055821;28;20059;-82
2022/08/04 03:35:15;;;;;;;2.88;1.38;;;19.60;99.90;;;;;;5041575;28;20033;-82
2022/08/04 03:37:43;;;;;;;2.25;1.50;;;19.50;99.90;;;;;;5021234;28;20047;-82
2022/08/04 03:40:47;;;;;;;1.98;1.52;;;19.50;99.90;;;;;;5008382;28;20099;-83
2022/08/04 03:43:22;;;;;;;2.55;1.52;;;19.40;99.90;;;;;;5020344;28;20049;-82
2022/08/04 03:46:16;;;;;;;3.03;1.65;;;19.30;99.90;;;;;;5037597;28;20055;-82
2022/08/04 03:48:48;;;;;;;2.53;1.55;;;19.30;99.90;;;;;;5018529;28;20046;-82
2022/08/04 03:54:33;;;;;;;3.03;1.52;;;19.20;99.90;;;;;;5024913;28;20040;-79
2022/08/04 03:57:04;;;;;;;5.28;1.77;;;19.20;99.90;;;;;;5036824;28;20036;-79
2022/08/04 03:59:59;;;;;;;2.58;1.67;;;19.10;99.90;;;;;;5020577;28;20045;-79
2022/08/04 04:02:49;;;;;;;5.22;1.52;;;19.00;99.90;;;;;;5020949;28;20040;-79
2022/08/04 04:05:54;;;;;;;3.03;1.42;;;19.10;99.90;;;;;;5020755;28;20133;-79
2022/08/04 04:08:30;;;;;;;2.63;1.23;;;19.00;99.90;;;;;;5020021;28;20134;-79
2022/08/04 04:11:16;;;;;;;;;;;19.00;99.90;;;;;;5037985;28;20470;-82
2022/08/04 04:14:00;;;;;;;2.83;1.60;;;18.90;99.90;;;;;;5020386;28;19924;-82
2022/08/04 04:16:48;;;;;;;4.15;1.73;;;18.90;99.90;;;;;;5020654;28;20178;-82
2022/08/04 04:19:30;;;;;;;3.58;1.70;;;18.80;99.90;;;;;;5035903;28;20128;-82
2022/08/04 04:21:56;;;;;;;6.55;2.28;;;18.90;99.90;;;;;;5037513;28;20039;-82
2022/08/04 04:24:48;;;;;;;4.50;1.80;;;18.80;99.90;;;;;;5037769;28;20131;-82
2022/08/04 04:27:38;;;;;;;4.15;2.10;;;18.90;99.90;;;;;;5029291;28;20045;-82
2022/08/04 04:30:07;;;;;;;4.30;1.80;;;18.90;99.90;;;;;;5036621;28;20051;-82
2022/08/04 04:32:57;;;;;;;2.10;1.48;;;18.90;99.90;;;;;;5037584;28;20041;-82
2022/08/04 04:35:43;;;;;;;2.50;1.30;;;18.90;99.90;;;;;;5037432;28;20383;-82
2022/08/04 04:38:40;;;;;;;6.13;1.67;;;18.90;99.90;;;;;;5020762;28;20506;-82
2022/08/04 04:41:06;;;;;;;1.98;1.50;;;19.00;99.90;;;;;;5017202;28;20041;-82
2022/08/04 04:43:44;;;;;;;2.75;1.27;;;19.00;99.90;;;;;;5001161;28;20037;-82
2022/08/04 04:46:12;;;;;;;3.15;1.73;;;19.00;99.90;;;;;;5024988;28;20032;-82
2022/08/04 04:48:45;;;;;;;3.03;1.38;;;19.00;99.90;;;;;;5020732;28;20431;-82
2022/08/04 04:51:26;;;;;;;2.92;1.65;;;19.10;99.90;;;;;;5036685;28;20071;-82
2022/08/04 04:54:10;;;;;;;2.30;1.45;;;19.10;99.90;;;;;;5037255;28;20045;-82
2022/08/04 04:56:52;;;;;;;3.30;1.83;;;19.20;99.90;;;;;;5037012;28;20118;-82
2022/08/04 04:59:21;;;;;;;3.60;2.15;;;19.20;99.90;;;;;;5036895;28;20410;-82
2022/08/04 05:02:19;;;;;;;4.00;1.77;;;19.30;99.90;;;;;;5015584;28;20176;-79
2022/08/04 05:05:16;;;;;;;3.67;1.58;;;19.40;99.90;;;;;;5033412;28;20077;-79
2022/08/04 05:07:52;;;;;;;4.93;2.17;;;19.50;99.90;;;;;;5012424;28;20044;-79
2022/08/04 05:10:55;;;;;;;3.83;1.45;;;19.70;99.90;;;;;;5035817;28;20072;-79
2022/08/04 05:13:53;;;;;;;2.38;1.63;;;19.90;99.90;;;;;;5020038;28;20128;-79
2022/08/04 05:16:37;;;;;;;3.15;1.85;;;20.10;99.90;;;;;;5025801;28;20049;-79
2022/08/04 05:19:05;;;;;;;4.30;2.17;;;20.30;99.90;;;;;;5031335;28;20040;-82
2022/08/04 05:21:51;;;;;;;6.13;2.80;;;20.50;99.90;;;;;;5034492;28;20116;-83
2022/08/04 05:24:21;;;;;;;5.57;2.25;;;21.00;99.90;;;;;;5027855;28;20037;-82
2022/08/04 05:26:52;;;;;;;8.13;2.40;;;21.10;99.90;;;;;;5035485;28;20494;-82
2022/08/04 05:29:30;;;;;;;4.93;2.25;;;21.30;99.90;;;;;;5035196;28;20048;-82
2022/08/04 05:31:58;;;;;;;9.02;2.88;;;21.40;99.90;;;;;;5033957;28;20040;-82
2022/08/04 05:34:37;;;;;;;4.70;2.63;;;21.50;99.90;;;;;;5035807;28;20398;-82
2022/08/04 05:37:08;;;;;;;4.40;2.50;;;21.50;99.90;;;;;;5036393;28;20091;-82
2022/08/04 05:40:04;;;;;;;5.57;2.88;;;21.70;99.90;;;;;;5036151;28;20110;-82
2022/08/04 05:42:34;;;;;;;6.07;3.25;;;22.00;99.90;;;;;;5033794;28;20132;-82
2022/08/04 05:45:01;;;;;;;5.72;2.78;;;23.20;99.90;;;;;;5019288;28;20037;-82
2022/08/04 05:47:28;;;;;;;6.00;2.55;;;24.10;99.90;;;;;;5036106;28;20049;-82
2022/08/04 05:49:55;;;;;;;5.55;2.75;;;25.10;99.90;;;;;;5019544;28;20072;-80
2022/08/04 05:52:21;;;;;;;8.05;2.53;;;25.00;99.90;;;;;;5034104;28;20090;-79
2022/08/04 05:54:49;;;;;;;4.18;2.20;;;25.80;99.90;;;;;;5019250;28;20041;-80
2022/08/04 05:57:15;;;;;;;4.63;2.28;;;27.00;99.90;;;;;;5019193;28;20509;-80
2022/08/04 05:59:45;;;;;;;3.08;1.75;;;27.40;99.90;;;;;;5018721;28;20055;-80
2022/08/04 06:02:16;;;;;;;5.90;2.65;;;28.30;99.90;;;;;;5034701;28;20048;-80
2022/08/04 06:04:45;;;;;;;5.88;2.42;;;28.50;99.90;;;;;;5033598;28;20080;-80
2022/08/04 06:07:12;;;;;;;2.53;1.80;;;28.20;99.90;;;;;;5035425;28;20081;-80
2022/08/04 06:09:40;;;;;;;4.10;1.77;;;28.20;99.90;;;;;;5035604;28;20374;-80
2022/08/04 06:12:21;;;;;;;6.00;2.28;;;28.50;99.90;;;;;;5035303;28;20040;-80
2022/08/04 06:14:49;;;;;;;6.47;2.92;;;27.90;99.90;;;;;;5029939;28;20052;-80
2022/08/04 06:17:25;;;;;;;3.60;1.90;;;27.50;99.90;;;;;;5021481;28;20049;-80
2022/08/04 06:19:52;;;;;;;;;;;26.50;99.90;;;;;;5039961;28;20463;-80
2022/08/04 06:22:20;;;;;;;4.95;2.28;;;26.10;99.90;;;;;;5039521;28;19916;-80
2022/08/04 06:24:48;;;;;;;3.60;2.00;;;26.00;99.90;;;;;;5022627;28;20033;-80
2022/08/04 06:27:16;;;;;;;4.70;2.35;;;25.60;99.90;;;;;;5023116;28;20429;-80
2022/08/04 06:29:43;;;;;;;7.70;2.40;;;25.80;99.90;;;;;;5039753;28;20073;-80
2022/08/04 06:32:26;;;;;;;8.10;2.90;;;26.10;99.90;;;;;;5039088;28;20076;-80
2022/08/04 06:34:57;;;;;;;5.68;2.22;;;26.30;99.90;;;;;;5023777;28;20120;-80
2022/08/04 06:37:24;;;;;;;9.75;2.67;;;26.50;99.90;;;;;;5019436;28;20099;-80
2022/08/04 06:39:51;;;;;;;4.45;2.53;;;26.40;99.90;;;;;;5003336;28;20083;-80
2022/08/04 06:42:19;;;;;;;3.58;2.25;;;26.40;99.90;;;;;;5038476;28;20437;-80
2022/08/04 06:44:51;;;;;;;5.63;2.20;;;26.40;99.90;;;;;;5022378;28;20060;-80
2022/08/04 06:47:18;;;;;;;5.18;2.28;;;26.40;99.90;;;;;;5021083;28;20041;-80
2022/08/04 06:49:46;;;;;;;6.00;2.13;;;26.50;99.90;;;;;;5038847;28;20045;-80
2022/08/04 06:52:16;;;;;;;4.22;2.83;;;26.50;99.90;;;;;;5022023;28;20107;-80
2022/08/04 06:54:52;;;;;;;7.75;2.30;;;26.30;99.90;;;;;;5020939;28;20098;-80
2022/08/04 06:57:21;;;;;;;4.25;2.10;;;26.30;99.90;;;;;;5040950;28;20064;-80
2022/08/04 06:59:52;;;;;;;3.63;2.45;;;26.10;99.90;;;;;;5058575;28;20048;-80
2022/08/04 07:02:24;;;;;;;5.28;2.05;;;26.20;99.90;;;;;;5029746;28;20388;-80
2022/08/04 07:04:50;;;;;;;7.30;3.67;;;26.60;99.90;;;;;;5037988;28;20437;-80
2022/08/04 07:07:16;;;;;;;4.32;2.40;;;27.30;99.90;;;;;;5020051;28;20066;-80
2022/08/04 07:09:42;;;;;;;3.25;1.80;;;27.90;99.90;;;;;;5034577;28;20398;-80
2022/08/04 07:12:09;;;;;;;6.88;2.88;;;27.80;99.90;;;;;;5038242;28;20038;-80
2022/08/04 07:14:35;;;;;;;5.68;2.65;;;27.60;99.90;;;;;;5034171;28;20164;-80
2022/08/04 07:17:06;;;;;;;4.70;2.33;;;27.60;99.90;;;;;;5019140;28;20156;-80
2022/08/04 07:19:34;;;;;;;3.03;2.00;;;27.90;99.90;;;;;;5037967;28;20077;-80
2022/08/04 07:22:01;;;;;;;4.70;2.33;;;28.10;99.90;;;;;;5021548;28;20548;-80
2022/08/04 07:24:35;;;;;;;5.53;2.15;;;28.40;99.90;;;;;;5038736;28;20480;-80
2022/08/04 07:27:02;;;;;;;6.38;2.85;;;28.70;99.90;;;;;;5021301;28;20049;-80
2022/08/04 07:29:28;;;;;;;4.82;2.20;;;29.10;99.90;;;;;;5037930;28;20049;-80
2022/08/04 07:31:56;;;;;;;4.75;2.13;;;29.60;99.90;;;;;;5021638;28;20036;-80
2022/08/04 07:34:23;;;;;;;6.47;1.90;;;29.60;99.80;;;;;;5037882;28;20119;-80
2022/08/04 07:36:52;;;;;;;4.05;2.00;;;29.40;99.80;;;;;;5038249;28;20041;-80
2022/08/04 07:39:20;;;;;;;5.68;2.10;;;29.30;99.90;;;;;;5020828;28;20036;-80
2022/08/04 07:41:46;;;;;;;4.85;2.33;;;29.20;99.90;;;;;;5030841;28;20422;-80
2022/08/04 07:44:15;;;;;;;5.72;2.03;;;29.10;99.70;;;;;;5011277;28;20039;-80
2022/08/04 07:46:43;;;;;;;4.35;1.92;;;28.80;99.90;;;;;;5019243;28;20043;-80
2022/08/04 07:49:10;;;;;;;5.63;2.42;;;28.80;99.90;;;;;;5036568;28;20037;-80
2022/08/04 07:51:37;;;;;;;3.28;2.10;;;28.60;99.90;;;;;;5037938;28;20124;-80
2022/08/04 07:54:04;;;;;;;4.15;2.03;;;28.40;99.90;;;;;;5037770;28;20029;-80
2022/08/04 07:56:34;;;;;;;3.58;1.90;;;28.50;99.90;;;;;;5003847;28;20040;-80
2022/08/04 07:59:00;;;;;;;4.18;1.60;;;28.60;99.90;;;;;;5037697;28;20036;-80
2022/08/04 08:01:26;;;;;;;4.85;1.80;;;28.70;99.90;;;;;;5003209;28;20090;-80
2022/08/04 08:03:55;;;;;;;3.38;1.60;;;28.50;99.90;;;;;;5037032;28;20049;-84
2022/08/04 08:06:22;;;;;;;3.17;1.70;;;28.50;99.90;;;;;;5037670;28;20096;-84
2022/08/04 08:08:48;;;;;;;4.10;2.10;;;28.90;99.90;;;;;;5037142;28;20045;-84
2022/08/04 08:11:15;;;;;;;4.22;1.85;;;29.60;99.90;;;;;;5019540;28;20123;-84
2022/08/04 08:13:42;;;;;;;5.60;1.65;;;30.20;99.40;;;;;;5016628;28;20120;-84
2022/08/04 08:16:08;;;;;;;6.03;1.50;;;30.40;98.40;;;;;;5019744;28;20431;-84
2022/08/04 08:18:34;;;;;;;2.30;1.20;;;30.20;98.40;;;;;;5022217;28;20098;-84
2022/08/04 08:21:00;;;;;;;2.67;1.40;;;30.10;98.80;;;;;;5020519;28;20045;-80
2022/08/04 08:23:30;;;;;;;2.95;1.48;;;30.30;98.40;;;;;;5021087;28;20147;-80
2022/08/04 08:25:57;;;;;;;3.10;1.40;;;30.60;97.80;;;;;;5037225;28;20047;-80
2022/08/04 08:28:23;;;;;;;2.90;1.52;;;31.00;97.90;;;;;;5036388;28;20049;-80
2022/08/04 08:30:49;;;;;;;5.18;1.55;;;31.60;97.60;;;;;;5033948;28;20029;-80
2022/08/04 08:33:16;;;;;;;3.05;1.40;;;32.30;96.10;;;;;;5020450;28;20029;-80
2022/08/04 08:36:03;;;;;;;4.95;1.60;;;32.30;95.20;;;;;;5020897;28;20447;-80
2022/08/04 08:38:37;;;;;;;4.47;1.30;;;32.20;96.10;;;;;;5039594;28;20135;-80
2022/08/04 08:41:34;;;;;;;2.08;1.27;;;32.70;95.40;;;;;;5054828;28;20421;-81
2022/08/04 08:44:10;;;;;;;3.17;1.40;;;32.90;94.70;;;;;;5017329;28;20049;-81
2022/08/04 08:47:04;;;;;;;4.78;1.77;;;33.40;93.90;;;;;;5017287;28;20124;-80
2022/08/04 08:49:51;;;;;;;2.28;0.98;;;34.00;93.60;;;;;;5016903;28;20515;-80
2022/08/04 08:52:54;;;;;;;1.55;1.30;;;34.60;93.40;;;;;;5029320;28;20071;-81
2022/08/04 08:55:31;;;;;;;2.97;1.25;;;35.40;92.80;;;;;;5032876;28;20041;-82
2022/08/04 08:58:41;;;;;;;2.55;1.23;;;35.50;91.40;;;;;;5036680;28;20499;-82
2022/08/04 09:01:26;;;;;;;3.78;1.50;;;35.60;91.40;;;;;;4999750;28;20044;-82
2022/08/04 09:04:13;;;;;;;2.72;1.23;;;36.30;90.70;;;;;;5030527;28;20037;-82
2022/08/04 09:07:09;;;;;;;5.05;1.60;;;36.80;90.00;;;;;;5035507;28;20045;-82
2022/08/04 09:10:01;;;;;;;5.35;1.58;;;37.20;89.20;;;;;;5036208;28;20098;-83
2022/08/04 09:12:55;;;;;;;3.60;1.25;;;37.30;88.70;;;;;;5031567;28;20483;-83
2022/08/04 09:15:55;;;;;;;3.15;0.85;;;37.00;87.00;;;;;;5034184;28;20118;-83
2022/08/04 09:18:35;;;;;;;3.17;1.30;;;36.90;86.70;;;;;;5020062;28;20037;-82
2022/08/04 09:21:22;;;;;;;2.13;1.10;;;37.30;86.70;;;;;;5035705;28;20430;-81
2022/08/04 09:24:10;;;;;;;3.53;0.93;;;37.40;86.60;;;;;;5035065;28;20071;-81
2022/08/04 09:26:38;;;;;;;4.43;1.50;;;37.20;87.20;;;;;;5018222;28;20079;-85
2022/08/04 09:29:20;;;;;;;2.13;1.00;;;37.20;87.90;;;;;;5032546;28;20040;-85
2022/08/04 09:31:54;;;;;;;2.78;1.20;;;37.20;86.30;;;;;;5034527;28;21499;-85
2022/08/04 09:34:26;;;;;;;1.50;0.90;;;36.90;86.70;;;;;;5034944;28;20037;-85
2022/08/04 09:37:16;;;;;;;3.25;0.93;;;37.00;88.00;;;;;;5035149;28;20080;-85
2022/08/04 09:39:55;;;;;;;2.95;1.13;;;37.30;87.30;;;;;;5033799;28;20037;-85
2022/08/04 09:42:31;;;;;;;3.33;1.17;;;37.60;86.70;;;;;;5017669;28;20052;-85
2022/08/04 09:45:15;;;;;;;4.45;1.10;;;37.70;86.40;;;;;;5030591;28;20038;-87
2022/08/04 09:47:58;;;;;;;2.30;0.90;;;37.80;86.80;;;;;;5035424;28;20555;-87
2022/08/04 09:50:36;;;;;;;2.92;0.85;;;37.70;84.70;;;;;;5004513;28;20067;-87
2022/08/04 09:53:07;;;;;;;3.90;1.08;;;37.00;84.40;;;;;;5019083;28;20079;-88
2022/08/04 09:55:45;;;;;;;3.05;0.98;;;36.80;85.30;;;;;;5019360;28;20041;-87
2022/08/04 09:58:38;;;;;;;0.57;0.57;;;36.80;85.50;;;;;;5035869;28;20441;-87
2022/08/04 10:01:09;;;;;;;2.38;0.93;;;37.10;84.80;;;;;;5021060;28;20130;-82
2022/08/04 10:03:39;;;;;;;2.33;0.90;;;37.50;83.70;;;;;;5015548;28;20119;-82
2022/08/04 10:06:56;;;;;;;1.80;1.00;;;38.00;83.50;;;;;;5014492;28;20045;-82
2022/08/04 10:09:31;;;;;;;4.05;1.00;;;37.60;80.00;;;;;;5035243;28;20459;-82
2022/08/04 10:12:00;;;;;;;2.38;0.90;;;37.20;80.90;;;;;;5035303;28;20525;-82
2022/08/04 10:14:45;;;;;;;0.60;0.60;;;37.10;81.90;;;;;;5036468;28;20116;-82
2022/08/04 10:17:34;;;;;;;1.08;0.80;;;36.90;81.30;;;;;;5020727;28;20052;-85
2022/08/04 10:20:37;;;;;;;1.90;0.80;;;36.90;82.40;;;;;;5035376;28;20514;-85
2022/08/04 10:23:41;;;;;;;1.48;0.73;;;36.90;81.70;;;;;;5018998;28;20084;-85
2022/08/04 10:26:44;;;;;;;1.33;0.93;;;37.30;81.60;;;;;;5035094;28;20079;-85
2022/08/04 10:29:16;;;;;;;1.95;1.08;;;38.00;80.50;;;;;;5035570;28;20052;-85
2022/08/04 10:31:48;;;;;;;0.90;0.70;;;37.30;78.30;;;;;;5035259;28;20045;-85
2022/08/04 10:34:20;;;;;;;3.75;0.85;;;36.90;78.90;;;;;;5035067;28;20510;-87
2022/08/04 10:37:08;;;;;;;0.82;0.82;;;37.10;80.00;;;;;;5035134;28;20453;-88
2022/08/04 10:43:20;;;;;;;1.80;0.88;;;37.40;76.30;;;;;;5020402;28;20080;-88
2022/08/04 10:46:13;;;;;;;2.45;1.08;;;36.00;78.50;;;;;;4986038;28;20041;-88
2022/08/04 10:48:55;;;;;;;2.22;0.90;;;35.70;79.20;;;;;;5034020;28;20041;-88
2022/08/04 10:51:53;;;;;;;2.03;1.10;;;34.80;79.10;;;;;;5030647;28;20029;-82
2022/08/04 10:54:30;;;;;;;2.40;0.82;;;33.80;79.90;;;;;;5030758;28;20037;-82
2022/08/04 10:57:03;;;;;;;0.90;0.63;;;33.10;82.10;;;;;;5018023;28;20029;-81
2022/08/04 10:59:38;;;;;;;1.83;1.08;;;32.80;85.60;;;;;;5034092;28;20394;-81
2022/08/04 11:02:38;;;;;;;2.17;0.85;;;33.20;82.20;;;;;;5036616;28;20395;-80
2022/08/04 11:05:33;;;;;;;2.50;0.80;;;33.20;81.50;;;;;;5020518;28;20033;-80
2022/08/04 11:08:24;;;;;;;1.70;0.80;;;32.70;83.40;;;;;;5022865;28;20053;-85
2022/08/04 11:11:21;;;;;;;0.88;0.80;;;32.60;83.30;;;;;;5022285;28;20091;-84
2022/08/04 11:14:09;;;;;;;2.70;1.20;;;32.40;83.80;;;;;;5038915;28;20048;-84
2022/08/04 11:16:59;;;;;;;2.42;0.95;;;32.20;83.70;;;;;;5015658;28;20056;-85
2022/08/04 11:19:36;;;;;;;1.10;0.90;;;32.10;83.90;;;;;;5016813;28;20041;-85
2022/08/04 11:22:08;;;;;;;1.08;0.68;;;32.10;84.10;;;;;;5037898;28;20037;-84
2022/08/04 11:24:36;;;;;;;0.82;0.50;;;31.80;82.50;;;;;;5022223;28;20371;-79
2022/08/04 11:27:10;;;;;;;0.90;0.90;;;31.40;84.30;;;;;;5038112;28;20040;-79
2022/08/04 11:29:55;;;;;;;1.95;0.90;;;31.30;84.00;;;;;;5021391;28;20147;-79
2022/08/04 11:32:30;;;;;;;0.70;0.47;;;31.20;82.80;;;;;;5022281;28;20126;-79
2022/08/04 11:35:01;;;;;;;1.27;0.70;;;30.80;83.80;;;;;;5038353;28;20037;-79
2022/08/04 11:38:10;;;;;;;1.20;0.65;;;30.70;85.60;;;;;;5021751;28;20047;-79
2022/08/04 11:40:40;;;;;;;1.77;0.80;;;31.00;84.40;;;;;;5029163;28;20057;-79
2022/08/04 11:43:12;;;;;;;0.98;0.90;;;30.90;84.80;;;;;;5020486;28;20075;-79
2022/08/04 11:46:05;;;;;;;1.27;0.70;;;30.90;85.30;;;;;;5037835;28;20491;-79
2022/08/04 11:49:04;;;;;;;0.95;0.80;;;30.80;84.80;;;;;;5021495;28;20053;-79
2022/08/04 11:51:31;;;;;;;2.03;1.15;;;30.40;84.60;;;;;;5038191;28;20068;-79
2022/08/04 11:53:58;;;;;;;3.28;1.00;;;29.90;86.30;;;;;;5037062;28;20102;-79
2022/08/04 11:56:24;;;;;;;4.30;0.80;;;29.70;85.50;;;;;;5037263;28;20167;-80
2022/08/04 11:58:50;;;;;;;1.30;0.75;;;29.50;87.80;;;;;;5034706;28;20088;-81
2022/08/04 12:01:40;;;;;;;1.65;0.82;;;29.20;87.60;;;;;;5036324;28;20074;-80
2022/08/04 12:04:11;;;;;;;1.75;0.98;;;29.20;86.60;;;;;;5037694;28;20080;-83
2022/08/04 12:06:47;;;;;;;0.65;0.50;;;29.00;87.30;;;;;;5037063;28;20040;-83
2022/08/04 12:09:33;;;;;;;3.33;0.85;;;28.90;88.90;;;;;;5031288;28;20053;-83
2022/08/04 12:12:31;;;;;;;2.35;1.13;;;28.80;88.70;;;;;;5035632;28;20039;-83
2022/08/04 12:15:26;;;;;;;2.10;0.70;;;29.00;89.30;;;;;;5009320;28;20052;-84
2022/08/04 12:17:58;;;;;;;0.90;0.73;;;29.10;89.70;;;;;;5031505;28;20049;-84
2022/08/04 12:20:28;;;;;;;3.92;0.77;;;29.20;87.90;;;;;;5039967;28;20041;-83
2022/08/04 12:22:56;;;;;;;1.58;1.05;;;29.20;87.30;;;;;;5035154;28;20055;-83
2022/08/04 12:25:40;;;;;;;0.60;0.60;;;29.40;87.30;;;;;;5020402;28;20055;-84
2022/08/04 12:28:28;;;;;;;0.68;0.55;;;29.60;90.60;;;;;;5036681;28;20049;-83
2022/08/04 12:31:10;;;;;;;1.95;0.80;;;30.10;90.30;;;;;;5038189;28;20041;-83
2022/08/04 12:34:16;;;;;;;2.20;0.70;;;30.40;88.50;;;;;;5025935;28;20041;-83
2022/08/04 12:37:09;;;;;;;0.77;0.70;;;30.70;87.20;;;;;;5006750;28;20041;-84
2022/08/04 12:39:38;;;;;;;3.47;0.63;;;31.20;86.50;;;;;;5020420;28;20045;-83
2022/08/04 12:42:21;;;;;;;1.00;0.80;;;31.00;84.90;;;;;;5037014;28;20037;-83
2022/08/04 12:44:52;;;;;;;1.38;0.80;;;30.90;84.80;;;;;;5040919;28;20391;-83
2022/08/04 12:47:23;;;;;;;1.88;0.77;;;30.60;85.20;;;;;;5034837;28;20037;-81
2022/08/04 12:49:50;;;;;;;1.50;0.65;;;30.60;84.90;;;;;;5026244;28;20039;-81
2022/08/04 12:52:19;;;;;;;1.48;0.80;;;30.60;86.90;;;;;;5037072;28;20348;-80
2022/08/04 12:54:50;;;;;;;2.65;0.70;;;30.80;87.30;;;;;;5036798;28;20467;-81
2022/08/04 12:57:17;;;;;;;1.20;0.80;;;31.20;86.20;;;;;;5035644;28;20033;-80
2022/08/04 12:59:44;;;;;;;1.30;0.75;;;31.50;85.20;;;;;;5036688;28;20079;-80
2022/08/04 13:02:22;;;;;;;1.48;0.80;;;31.70;84.60;;;;;;5035582;28;20044;-80
2022/08/04 13:04:49;;;;;;;2.30;0.82;;;31.60;83.60;;;;;;5036587;28;20067;-80
2022/08/04 13:07:20;;;;;;;1.00;0.73;;;31.50;84.20;;;;;;5036113;28;20593;-80
2022/08/04 13:09:47;;;;;;;2.30;1.00;;;31.40;84.10;;;;;;5036287;28;20083;-80
2022/08/04 13:12:17;;;;;;;1.17;0.85;;;31.20;84.80;;;;;;5022048;28;20052;-80
2022/08/04 13:14:47;;;;;;;2.45;0.65;;;31.30;83.40;;;;;;5041457;28;20052;-81
2022/08/04 13:17:13;;;;;;;0.98;0.65;;;31.10;84.20;;;;;;5023776;28;20080;-80
2022/08/04 13:19:44;;;;;;;1.95;0.98;;;31.10;85.10;;;;;;5035842;28;20044;-81
2022/08/04 13:22:15;;;;;;;1.98;0.93;;;31.10;84.90;;;;;;5034959;28;20441;-83
2022/08/04 13:24:42;;;;;;;3.53;1.20;;;30.90;84.10;;;;;;5019725;28;20043;-83
2022/08/04 13:27:12;;;;;;;2.40;0.80;;;30.70;85.00;;;;;;5035869;28;20502;-83
2022/08/04 13:29:40;;;;;;;1.85;0.70;;;30.50;85.60;;;;;;5020215;28;20375;-84
2022/08/04 13:32:07;;;;;;;3.47;1.20;;;30.30;85.30;;;;;;5036348;28;20033;-83
2022/08/04 13:34:34;;;;;;;3.03;0.95;;;30.10;85.00;;;;;;5022496;28;20080;-84
2022/08/04 13:37:05;;;;;;;5.10;1.40;;;30.10;85.30;;;;;;5016308;28;20121;-83
2022/08/04 13:39:33;;;;;;;0.98;0.70;;;30.00;85.00;;;;;;5035826;28;20386;-83
2022/08/04 13:42:03;;;;;;;3.75;0.90;;;29.80;87.80;;;;;;5035860;28;20041;-84
2022/08/04 13:44:32;;;;;;;0.75;0.50;;;29.80;85.40;;;;;;5035901;28;20041;-85
2022/08/04 13:47:03;;;;;;;1.70;0.82;;;29.70;86.30;;;;;;5034634;28;20040;-85